createdAt,value
2019-03-24T00:07:29.161Z,127.40
2019-03-24T00:17:29.951Z,126.70
2019-03-24T00:27:30.837Z,117.50
2019-03-24T00:37:31.632Z,108.53
2019-03-24T00:47:32.470Z,102.20
2019-03-24T00:57:33.233Z,118.43
2019-03-24T01:07:35.182Z,112.23
2019-03-24T01:17:36.855Z,99.83
2019-03-24T01:27:37.742Z,95.77
2019-03-24T01:37:38.990Z,89.70
2019-03-24T01:47:39.893Z,79.30
2019-03-24T01:57:40.656Z,77.67
2019-03-24T02:07:41.584Z,96.13
2019-03-24T02:17:42.362Z,74.83
2019-03-24T02:27:43.246Z,74.83
2019-03-24T02:37:44.075Z,88.20
2019-03-24T02:47:44.784Z,82.97
2019-03-24T02:57:45.511Z,86.23
2019-03-24T03:07:46.354Z,83.93
2019-03-24T03:17:47.085Z,87.57
2019-03-24T03:27:47.862Z,103.30
2019-03-24T03:37:49.602Z,96.53
2019-03-24T03:47:50.282Z,79.00
2019-03-24T03:57:52.429Z,79.60
2019-03-24T04:07:53.393Z,96.07
2019-03-24T04:17:54.084Z,79.70
2019-03-24T04:27:54.928Z,81.60
2019-03-24T04:37:57.697Z,81.73
2019-03-24T04:47:58.476Z,87.93
2019-03-24T04:57:59.272Z,77.70
2019-03-24T05:08:00.252Z,87.87
2019-03-24T05:18:01.076Z,102.53
2019-03-24T05:28:03.026Z,100.43
2019-03-24T05:38:03.913Z,118.13
2019-03-24T05:48:04.668Z,100.23
2019-03-24T05:58:05.479Z,110.07
2019-03-24T06:08:06.310Z,104.93
2019-03-24T06:18:06.965Z,107.90
2019-03-24T06:28:07.661Z,104.47
2019-03-24T06:38:10.332Z,119.53
2019-03-24T06:48:13.214Z,101.30
2019-03-24T06:58:14.124Z,102.47
2019-03-24T07:08:14.968Z,110.90
2019-03-24T07:18:16.808Z,111.40
2019-03-24T07:28:17.618Z,111.30
2019-03-24T07:38:19.452Z,109.93
2019-03-24T07:48:21.275Z,87.73
2019-03-24T07:58:22.066Z,89.33
2019-03-24T08:08:23.696Z,82.93
2019-03-24T08:18:29.963Z,77.33
2019-03-24T08:28:29.209Z,84.70
2019-03-24T08:38:32.029Z,85.77
2019-03-24T08:48:40.951Z,84.30
2019-03-24T08:58:40.617Z,75.77
2019-03-24T09:08:41.578Z,79.23
2019-03-24T09:18:52.700Z,73.77
2019-03-24T09:28:56.318Z,80.63
2019-03-24T09:38:57.065Z,62.73
2019-03-24T09:49:03.171Z,57.13
2019-03-24T09:59:00.724Z,52.10
2019-03-24T10:09:01.479Z,54.33
2019-03-24T10:19:02.221Z,53.37
2019-03-24T10:29:10.817Z,55.77
2019-03-24T10:39:18.393Z,53.03
2019-03-24T10:49:25.004Z,53.30
2019-03-24T10:59:24.949Z,50.63
2019-03-24T11:09:25.647Z,54.53
2019-03-24T11:19:35.408Z,52.93
2019-03-24T11:29:29.219Z,56.03
2019-03-24T11:39:29.958Z,46.40
2019-03-24T11:49:33.779Z,43.50
2019-03-24T11:59:34.666Z,43.50
2019-03-24T12:09:41.129Z,44.13
2019-03-24T12:19:41.927Z,42.67
2019-03-24T12:29:42.716Z,42.67
2019-03-24T12:39:43.483Z,39.97
2019-03-24T12:49:45.304Z,39.20
2019-03-24T12:59:46.205Z,37.87
2019-03-24T13:09:46.961Z,40.47
2019-03-24T13:19:48.501Z,33.63
2019-03-24T13:29:49.828Z,35.83
2019-03-24T13:39:50.639Z,33.30
2019-03-24T13:49:51.382Z,39.17
2019-03-24T13:59:53.155Z,38.77
2019-03-24T14:09:59.933Z,32.97
2019-03-24T14:20:00.811Z,27.73
2019-03-24T14:30:04.206Z,29.97
2019-03-24T14:40:06.055Z,25.53
2019-03-24T14:50:09.954Z,25.93
2019-03-24T15:00:36.236Z,25.93
2019-03-24T15:10:38.819Z,21.53
2019-03-24T15:20:43.714Z,21.03
2019-03-24T15:30:44.503Z,24.43
2019-03-24T15:40:45.289Z,19.80
2019-03-24T15:50:47.121Z,20.83
2019-03-24T16:00:52.802Z,25.57
2019-03-24T16:10:59.017Z,24.20
2019-03-24T16:20:58.179Z,25.63
2019-03-24T16:30:59.086Z,30.17
2019-03-24T16:40:59.926Z,25.47
2019-03-24T16:51:01.597Z,18.87
2019-03-24T17:01:02.337Z,16.80
2019-03-24T17:11:05.213Z,12.70
2019-03-24T17:21:05.972Z,13.53
2019-03-24T17:31:09.768Z,16.43
2019-03-24T17:41:12.556Z,12.13
2019-03-24T17:51:15.283Z,14.37
2019-03-24T18:01:19.649Z,11.77
2019-03-24T18:11:21.385Z,9.93
2019-03-24T18:21:22.214Z,11.57
2019-03-24T18:31:24.068Z,9.80
2019-03-24T18:41:24.892Z,8.90
2019-03-24T18:51:27.757Z,11.67
2019-03-24T19:01:28.614Z,15.67
2019-03-24T19:11:29.388Z,10.27
2019-03-24T19:21:31.335Z,15.80
2019-03-24T19:31:34.041Z,13.80
2019-03-24T19:41:36.850Z,12.87
2019-03-24T19:51:40.791Z,12.90
2019-03-24T20:01:42.546Z,8.63
2019-03-24T20:11:44.320Z,11.67
2019-03-24T20:21:45.318Z,6.37
2019-03-24T20:31:46.178Z,8.17
2019-03-24T20:41:46.885Z,7.37
2019-03-24T20:51:49.620Z,5.00
2019-03-24T21:01:51.344Z,4.97
2019-03-24T21:11:52.182Z,9.13
2019-03-24T21:21:52.914Z,5.57
2019-03-24T21:31:55.261Z,6.70
2019-03-24T21:41:56.289Z,4.87
2019-03-24T21:51:58.019Z,7.67
2019-03-24T22:01:59.771Z,7.60
2019-03-24T22:12:00.658Z,5.53
2019-03-24T22:22:01.362Z,6.97
2019-03-24T22:32:02.024Z,5.77
2019-03-24T22:42:02.897Z,5.50
2019-03-24T22:52:07.411Z,9.23
2019-03-24T23:02:13.214Z,9.27
2019-03-24T23:12:13.899Z,5.80
2019-03-24T23:22:14.644Z,12.20
2019-03-24T23:32:15.389Z,9.00
2019-03-24T23:42:16.217Z,11.17
2019-03-24T23:52:17.057Z,11.57
